Time;durP1;ratioP1;P1;durP2;ratioP2;P2;SDS_P1;SDS_P2;PMS_P1;PMS_P2;Temp;Humidity;BMP_temperature;BMP_pressure;BME280_temperature;BME280_humidity;BME280_pressure;Samples;Min_cycle;Max_cycle;Signal;HPM_P1;HPM_P2
2021/11/13 00:01:56;;;;;;;16.65;10.07;;;4.80;99.90;;;;;;5084216;28;20390;-84
2021/11/13 00:04:21;;;;;;;14.20;9.73;;;4.80;99.90;;;;;;5100685;28;20024;-82
2021/11/13 00:06:47;;;;;;;14.77;10.60;;;4.80;99.90;;;;;;5099817;28;20087;-84
2021/11/13 00:09:14;;;;;;;16.60;10.10;;;4.80;99.90;;;;;;5100194;28;20039;-84
2021/11/13 00:11:41;;;;;;;17.45;10.55;;;4.70;99.90;;;;;;5099948;28;20383;-84
2021/11/13 00:14:13;;;;;;;17.38;10.57;;;4.80;99.90;;;;;;5082432;28;20043;-84
2021/11/13 00:16:38;;;;;;;16.53;10.93;;;4.70;99.90;;;;;;5101346;28;20077;-83
2021/11/13 00:19:04;;;;;;;14.35;10.05;;;4.70;99.90;;;;;;5101440;28;20081;-83
2021/11/13 00:21:30;;;;;;;16.73;10.90;;;4.80;99.90;;;;;;5100642;28;20109;-82
2021/11/13 00:23:57;;;;;;;17.10;10.77;;;4.70;99.90;;;;;;5101521;28;20071;-83
2021/11/13 00:26:22;;;;;;;16.80;11.10;;;4.80;99.90;;;;;;5101121;28;20038;-81
2021/11/13 00:28:48;;;;;;;18.08;12.05;;;4.70;99.90;;;;;;5100179;28;20020;-81
2021/11/13 00:31:14;;;;;;;16.85;11.65;;;4.70;99.90;;;;;;5107662;28;20020;-78
2021/11/13 00:33:43;;;;;;;18.58;11.90;;;4.60;99.90;;;;;;5116498;28;20023;-80
2021/11/13 00:36:09;;;;;;;20.00;11.75;;;4.60;99.90;;;;;;5088953;28;20028;-83
2021/11/13 00:38:35;;;;;;;14.52;10.38;;;4.60;99.90;;;;;;5083449;28;20020;-84
2021/11/13 00:41:01;;;;;;;18.65;11.25;;;4.60;99.90;;;;;;5099939;28;20036;-84
2021/11/13 00:43:27;;;;;;;16.33;11.10;;;4.60;99.90;;;;;;5101101;28;20016;-83
2021/11/13 00:45:53;;;;;;;14.98;10.55;;;4.60;99.90;;;;;;5101615;28;20075;-84
2021/11/13 00:48:19;;;;;;;17.48;11.30;;;4.70;99.90;;;;;;5083381;28;20119;-82
2021/11/13 00:50:45;;;;;;;18.42;11.70;;;4.70;99.90;;;;;;5084209;28;20104;-84
2021/11/13 00:53:11;;;;;;;15.85;10.57;;;4.70;99.90;;;;;;5101362;28;20038;-83
2021/11/13 00:55:37;;;;;;;16.02;11.05;;;4.60;99.90;;;;;;5100845;28;20430;-82
2021/11/13 00:58:03;;;;;;;13.88;9.60;;;4.70;99.90;;;;;;5101022;28;20020;-84
2021/11/13 01:00:28;;;;;;;15.48;10.13;;;4.70;99.90;;;;;;5100831;28;20032;-84
2021/11/13 01:02:56;;;;;;;14.93;10.30;;;4.60;99.90;;;;;;5101471;28;20044;-83
2021/11/13 01:05:21;;;;;;;16.60;10.15;;;4.60;99.90;;;;;;5101360;28;20183;-82
2021/11/13 01:07:48;;;;;;;15.13;9.60;;;4.70;99.90;;;;;;5100991;28;20028;-81
2021/11/13 01:10:16;;;;;;;17.45;11.40;;;4.70;99.90;;;;;;5101819;28;20020;-84
2021/11/13 01:12:42;;;;;;;21.10;11.05;;;4.70;99.90;;;;;;5083925;28;20035;-81
2021/11/13 01:15:09;;;;;;;15.70;9.98;;;4.70;99.90;;;;;;5116029;28;20038;-80
2021/11/13 01:17:35;;;;;;;13.50;9.05;;;4.70;99.90;;;;;;5113597;28;20047;-82
2021/11/13 01:20:02;;;;;;;15.93;10.23;;;4.70;99.90;;;;;;5098869;28;20039;-82
2021/11/13 01:22:28;;;;;;;13.90;9.82;;;4.70;99.90;;;;;;5101213;28;20032;-83
2021/11/13 01:24:54;;;;;;;19.33;10.68;;;4.70;99.90;;;;;;5107155;28;20032;-84
2021/11/13 01:27:19;;;;;;;16.73;11.15;;;4.70;99.90;;;;;;5108793;28;20408;-83
2021/11/13 01:29:45;;;;;;;17.65;11.35;;;4.70;99.90;;;;;;5105560;28;20056;-85
2021/11/13 01:32:11;;;;;;;16.05;10.73;;;4.70;99.90;;;;;;5105733;28;20020;-84
2021/11/13 01:34:39;;;;;;;15.93;10.30;;;4.60;99.90;;;;;;5107345;28;20031;-85
2021/11/13 01:37:06;;;;;;;15.02;10.13;;;4.70;99.90;;;;;;5104733;28;20099;-84
2021/11/13 01:39:32;;;;;;;13.82;9.35;;;4.70;99.90;;;;;;5085398;28;20399;-82
2021/11/13 01:41:59;;;;;;;14.02;9.73;;;4.70;99.90;;;;;;5103534;28;20028;-83
2021/11/13 01:44:25;;;;;;;15.77;10.32;;;4.80;99.90;;;;;;5104173;28;20020;-84
2021/11/13 01:46:51;;;;;;;15.95;9.77;;;4.80;99.90;;;;;;5103704;28;20044;-83
2021/11/13 01:49:18;;;;;;;13.77;9.45;;;4.80;99.90;;;;;;5104010;28;20035;-84
2021/11/13 01:51:46;;;;;;;16.50;9.93;;;4.80;99.90;;;;;;5105115;28;20024;-83
2021/11/13 01:54:12;;;;;;;14.50;9.93;;;4.70;99.90;;;;;;5108103;28;20008;-82
2021/11/13 01:56:40;;;;;;;14.38;9.65;;;4.80;99.90;;;;;;5107808;28;20067;-80
2021/11/13 01:59:07;;;;;;;15.38;9.38;;;4.80;99.90;;;;;;5090251;28;20505;-81
2021/11/13 02:01:34;;;;;;;15.13;9.25;;;4.80;99.90;;;;;;5108230;28;20026;-83
2021/11/13 02:04:01;;;;;;;13.07;8.73;;;4.80;99.90;;;;;;5090888;28;20527;-83
2021/11/13 02:06:27;;;;;;;14.77;9.52;;;4.80;99.90;;;;;;5108907;28;20021;-84
2021/11/13 02:08:53;;;;;;;14.70;8.80;;;4.80;99.90;;;;;;5110382;28;20038;-80
2021/11/13 02:11:23;;;;;;;12.38;8.45;;;4.80;99.90;;;;;;5106680;28;20149;-84
2021/11/13 02:13:50;;;;;;;14.52;9.40;;;4.80;99.90;;;;;;5087584;28;20032;-82
2021/11/13 02:16:16;;;;;;;13.30;8.82;;;4.70;99.90;;;;;;5086690;28;20492;-84
2021/11/13 02:18:43;;;;;;;13.07;8.27;;;4.70;99.90;;;;;;5104323;28;20031;-83
2021/11/13 02:21:10;;;;;;;10.93;7.80;;;4.70;99.90;;;;;;5103524;28;20040;-82
2021/11/13 02:23:38;;;;;;;13.50;9.13;;;4.80;99.90;;;;;;5104492;28;20035;-83
2021/11/13 02:26:04;;;;;;;14.15;8.57;;;4.80;99.90;;;;;;5108858;28;20471;-83
2021/11/13 02:28:35;;;;;;;10.32;7.63;;;4.80;99.90;;;;;;5106903;28;20031;-84
2021/11/13 02:31:02;;;;;;;12.65;7.75;;;4.70;99.90;;;;;;5107686;28;20026;-83
2021/11/13 02:33:28;;;;;;;10.38;7.53;;;4.80;99.90;;;;;;5111336;28;20016;-84
2021/11/13 02:35:54;;;;;;;10.88;7.45;;;4.80;99.90;;;;;;5110276;28;21642;-84
2021/11/13 02:38:23;;;;;;;15.27;9.60;;;4.80;99.90;;;;;;5105693;28;20058;-84
2021/11/13 02:40:55;;;;;;;13.98;9.82;;;4.80;99.90;;;;;;5087720;28;20087;-82
2021/11/13 02:43:22;;;;;;;17.45;10.65;;;4.80;99.90;;;;;;5107071;28;20073;-84
2021/11/13 02:45:48;;;;;;;14.00;9.30;;;4.90;99.90;;;;;;5108150;28;20020;-81
2021/11/13 02:48:16;;;;;;;20.40;12.80;;;4.90;99.90;;;;;;5097238;28;20043;-83
2021/11/13 02:50:45;;;;;;;20.23;12.57;;;4.90;99.90;;;;;;5097605;28;20088;-78
2021/11/13 02:53:19;;;;;;;17.67;12.05;;;4.90;99.90;;;;;;5098011;28;20020;-80
2021/11/13 02:55:47;;;;;;;21.00;12.13;;;4.80;99.90;;;;;;5116066;28;20020;-81
2021/11/13 02:58:13;;;;;;;16.10;11.18;;;4.70;99.90;;;;;;5115516;28;20111;-80
2021/11/13 03:00:41;;;;;;;14.57;9.95;;;4.70;99.90;;;;;;5115737;28;20028;-82
2021/11/13 03:03:07;;;;;;;15.23;9.20;;;4.70;99.90;;;;;;5115589;28;20013;-83
2021/11/13 03:05:36;;;;;;;18.42;11.23;;;4.70;99.90;;;;;;5114904;28;20028;-80
2021/11/13 03:08:04;;;;;;;17.08;11.80;;;4.80;99.90;;;;;;5101439;28;20054;-79
2021/11/13 03:10:32;;;;;;;17.52;12.32;;;4.80;99.90;;;;;;5117618;28;20274;-83
2021/11/13 03:12:59;;;;;;;19.63;12.20;;;4.70;99.90;;;;;;5115288;28;20084;-81
2021/11/13 03:15:25;;;;;;;19.67;11.15;;;4.70;99.90;;;;;;5116270;28;20020;-81
2021/11/13 03:17:52;;;;;;;18.38;11.77;;;4.60;99.90;;;;;;5115864;28;20054;-79
2021/11/13 03:20:22;;;;;;;18.80;11.85;;;4.60;99.90;;;;;;5115703;28;20034;-81
2021/11/13 03:22:49;;;;;;;16.85;10.70;;;4.60;99.90;;;;;;5116214;28;20043;-83
2021/11/13 03:25:18;;;;;;;21.80;11.95;;;4.60;99.90;;;;;;5115340;28;20082;-79
2021/11/13 03:27:48;;;;;;;20.55;12.40;;;4.60;99.90;;;;;;5115145;28;20009;-82
2021/11/13 03:30:14;;;;;;;20.10;12.32;;;4.50;99.90;;;;;;5116395;28;20075;-84
2021/11/13 03:32:40;;;;;;;17.85;10.90;;;4.40;99.90;;;;;;5116080;28;20047;-81
2021/11/13 03:35:07;;;;;;;17.02;11.95;;;4.50;99.90;;;;;;5116650;28;20028;-83
2021/11/13 03:37:33;;;;;;;17.33;11.15;;;4.50;99.90;;;;;;5115610;28;20092;-81
2021/11/13 03:39:59;;;;;;;19.27;11.80;;;4.50;99.90;;;;;;5115122;28;20032;-82
2021/11/13 03:42:29;;;;;;;16.52;11.02;;;4.50;99.90;;;;;;5115269;28;20051;-80
2021/11/13 03:44:57;;;;;;;16.42;11.48;;;4.50;99.90;;;;;;5097473;28;20043;-80
2021/11/13 03:47:23;;;;;;;17.65;11.13;;;4.40;99.90;;;;;;5114816;28;20035;-81
2021/11/13 03:49:49;;;;;;;15.25;10.05;;;4.40;99.90;;;;;;5097445;28;20025;-80
2021/11/13 03:52:18;;;;;;;12.20;8.98;;;4.40;99.90;;;;;;5115033;28;20092;-82
2021/11/13 03:54:43;;;;;;;13.23;9.10;;;4.50;99.90;;;;;;5115666;28;20028;-82
2021/11/13 03:57:10;;;;;;;15.50;8.93;;;4.50;99.90;;;;;;5114675;28;20028;-80
2021/11/13 03:59:36;;;;;;;12.80;9.50;;;4.50;99.90;;;;;;5114767;28;20032;-82
2021/11/13 04:02:09;;;;;;;12.95;9.57;;;4.50;99.90;;;;;;5097065;28;20044;-81
2021/11/13 04:04:36;;;;;;;15.00;9.95;;;4.40;99.90;;;;;;5115381;28;20106;-82
2021/11/13 04:07:02;;;;;;;13.43;9.75;;;4.40;99.90;;;;;;5114698;28;20080;-84
2021/11/13 04:09:28;;;;;;;13.63;9.23;;;4.40;99.90;;;;;;5114827;28;20035;-82
2021/11/13 04:11:54;;;;;;;14.68;8.80;;;4.40;99.90;;;;;;5114859;28;20035;-82
2021/11/13 04:14:20;;;;;;;12.85;9.05;;;4.40;99.90;;;;;;5115724;28;20054;-81
2021/11/13 04:16:45;;;;;;;14.90;9.85;;;4.50;99.90;;;;;;5113578;28;20028;-84
2021/11/13 04:19:12;;;;;;;13.82;9.88;;;4.40;99.90;;;;;;5115023;28;20202;-82
2021/11/13 04:21:38;;;;;;;17.10;11.13;;;4.40;99.90;;;;;;5113843;28;20076;-82
2021/11/13 04:24:08;;;;;;;16.17;10.95;;;4.40;99.90;;;;;;5113760;28;20048;-81
2021/11/13 04:26:34;;;;;;;16.13;10.52;;;4.30;99.90;;;;;;5114254;28;20016;-81
2021/11/13 04:29:01;;;;;;;17.40;11.77;;;4.40;99.90;;;;;;5114442;28;20043;-79
2021/11/13 04:31:27;;;;;;;15.35;10.10;;;4.40;99.90;;;;;;5113888;28;20079;-82
2021/11/13 04:33:56;;;;;;;14.30;9.68;;;4.30;99.90;;;;;;5114044;28;20042;-78
2021/11/13 04:36:24;;;;;;;17.58;11.10;;;4.30;99.90;;;;;;5113851;28;20020;-81
2021/11/13 04:38:51;;;;;;;14.07;10.02;;;4.20;99.90;;;;;;5113786;28;20113;-79
2021/11/13 04:41:17;;;;;;;20.33;11.60;;;4.20;99.90;;;;;;5114098;28;20054;-82
2021/11/13 04:43:43;;;;;;;18.02;12.20;;;4.20;99.90;;;;;;5114679;28;20096;-83
2021/11/13 04:46:09;;;;;;;16.25;11.70;;;4.20;99.90;;;;;;5096408;28;20034;-79
2021/11/13 04:48:37;;;;;;;17.63;11.13;;;4.20;99.90;;;;;;5114251;28;20084;-80
2021/11/13 04:51:03;;;;;;;19.98;12.32;;;4.20;99.90;;;;;;5112997;28;20032;-80
2021/11/13 04:53:29;;;;;;;15.77;11.40;;;4.20;99.90;;;;;;5114108;28;20039;-82
2021/11/13 04:55:55;;;;;;;19.85;11.48;;;4.10;99.90;;;;;;5113376;28;20028;-81
2021/11/13 04:58:21;;;;;;;22.55;12.15;;;4.10;99.90;;;;;;5112933;28;20028;-82
2021/11/13 05:00:47;;;;;;;15.77;10.23;;;4.10;99.90;;;;;;5112796;28;20078;-81
2021/11/13 05:03:13;;;;;;;16.77;10.57;;;4.20;99.90;;;;;;5112938;28;20460;-83
2021/11/13 05:05:39;;;;;;;14.90;9.80;;;4.30;99.90;;;;;;5111368;28;20061;-83
2021/11/13 05:08:05;;;;;;;17.05;10.25;;;4.40;99.90;;;;;;5091610;28;20096;-83
2021/11/13 05:10:31;;;;;;;17.40;11.68;;;4.40;99.90;;;;;;5104850;28;20033;-82
2021/11/13 05:12:56;;;;;;;19.60;12.70;;;4.40;99.90;;;;;;5103134;28;20515;-81
2021/11/13 05:15:22;;;;;;;21.70;13.57;;;4.30;99.90;;;;;;5102994;28;20028;-82
2021/11/13 05:17:52;;;;;;;22.88;14.15;;;4.20;99.90;;;;;;5102901;28;20119;-84
2021/11/13 05:20:19;;;;;;;19.48;13.07;;;4.10;99.90;;;;;;5102068;28;20114;-83
2021/11/13 05:22:46;;;;;;;21.45;13.32;;;4.10;99.90;;;;;;5084157;28;20372;-83
2021/11/13 05:25:15;;;;;;;20.33;12.93;;;4.00;99.90;;;;;;5101992;28;20024;-82
2021/11/13 05:27:41;;;;;;;24.30;13.43;;;4.00;99.90;;;;;;5103498;28;20031;-84
2021/11/13 05:30:10;;;;;;;26.02;14.63;;;4.00;99.90;;;;;;5105853;28;20103;-83
2021/11/13 05:32:35;;;;;;;22.92;13.18;;;4.00;99.90;;;;;;5105823;28;20024;-82
2021/11/13 05:35:01;;;;;;;22.80;13.65;;;4.00;99.90;;;;;;5106561;28;20041;-84
2021/11/13 05:37:27;;;;;;;18.55;11.73;;;4.00;99.90;;;;;;5087811;28;20051;-84
2021/11/13 05:39:52;;;;;;;17.58;12.35;;;4.00;99.90;;;;;;5105510;28;20052;-84
2021/11/13 05:42:18;;;;;;;18.27;11.63;;;4.10;99.90;;;;;;5110738;22;20045;-82
2021/11/13 05:44:45;;;;;;;19.67;11.93;;;4.10;99.90;;;;;;5065724;28;20106;-80
2021/11/13 05:47:11;;;;;;;24.92;13.80;;;4.10;99.90;;;;;;5083978;28;20044;-83
2021/11/13 05:49:37;;;;;;;19.58;12.48;;;4.10;99.90;;;;;;5084036;28;20051;-83
2021/11/13 05:52:04;;;;;;;17.70;11.55;;;4.10;99.90;;;;;;5099559;28;20050;-82
2021/11/13 05:54:30;;;;;;;18.70;11.57;;;4.10;99.90;;;;;;5106138;28;20460;-81
2021/11/13 05:56:56;;;;;;;18.98;11.23;;;4.20;99.90;;;;;;5106557;28;20440;-82
2021/11/13 05:59:22;;;;;;;16.55;10.48;;;4.20;99.90;;;;;;5088137;28;20035;-79
2021/11/13 06:01:47;;;;;;;14.65;10.20;;;4.30;99.90;;;;;;5113614;28;20134;-80
2021/11/13 06:04:13;;;;;;;15.20;9.93;;;4.30;99.90;;;;;;5114861;28;20077;-81
2021/11/13 06:06:39;;;;;;;13.18;8.55;;;4.40;99.90;;;;;;5108012;28;20468;-82
2021/11/13 06:09:05;;;;;;;12.43;8.85;;;4.40;99.90;;;;;;5108580;28;20028;-80
2021/11/13 06:11:31;;;;;;;15.38;9.15;;;4.40;99.90;;;;;;5116208;28;20037;-80
2021/11/13 06:13:57;;;;;;;15.48;10.35;;;4.50;99.90;;;;;;5114407;28;20032;-80
2021/11/13 06:16:23;;;;;;;15.88;9.27;;;4.50;99.90;;;;;;5093056;28;20030;-81
2021/11/13 06:18:48;;;;;;;14.15;9.18;;;4.60;99.90;;;;;;5111677;28;20020;-80
2021/11/13 06:21:14;;;;;;;12.98;8.93;;;4.60;99.90;;;;;;5108537;28;20103;-81
2021/11/13 06:23:45;;;;;;;12.18;8.18;;;4.70;99.90;;;;;;5104735;28;20065;-81
2021/11/13 06:26:13;;;;;;;11.52;8.18;;;4.70;99.90;;;;;;5105371;28;20032;-79
2021/11/13 06:28:39;;;;;;;11.40;7.85;;;4.80;99.90;;;;;;5087009;28;20070;-80
2021/11/13 06:31:04;;;;;;;13.65;8.55;;;4.90;99.90;;;;;;5105613;28;20036;-81
2021/11/13 06:33:30;;;;;;;12.32;8.50;;;4.90;99.90;;;;;;5087809;28;20095;-81
2021/11/13 06:35:56;;;;;;;13.10;8.63;;;5.00;99.90;;;;;;5087592;28;20024;-81
2021/11/13 06:38:22;;;;;;;13.25;8.45;;;5.00;99.90;;;;;;5103413;28;20028;-81
2021/11/13 06:40:48;;;;;;;15.80;10.35;;;4.90;99.90;;;;;;5085250;28;20028;-81
2021/11/13 06:43:15;;;;;;;17.55;11.38;;;4.90;99.90;;;;;;5087189;28;20440;-79
2021/11/13 06:45:41;;;;;;;17.25;10.57;;;4.90;99.90;;;;;;5088217;28;20027;-81
2021/11/13 06:48:07;;;;;;;16.48;10.80;;;4.90;99.90;;;;;;5108131;28;20061;-80
2021/11/13 06:50:34;;;;;;;16.00;11.00;;;4.90;99.90;;;;;;5108256;28;20020;-84
2021/11/13 06:53:02;;;;;;;15.85;10.05;;;4.90;99.90;;;;;;5106484;28;20369;-84
2021/11/13 06:55:28;;;;;;;16.38;10.23;;;5.00;99.90;;;;;;5089080;28;20035;-81
2021/11/13 06:57:54;;;;;;;14.13;9.57;;;4.90;99.90;;;;;;5109915;28;20024;-83
2021/11/13 07:00:20;;;;;;;15.10;9.73;;;4.90;99.90;;;;;;5089220;28;20020;-81
2021/11/13 07:02:46;;;;;;;15.48;9.55;;;4.90;99.90;;;;;;5087703;28;20119;-82
2021/11/13 07:05:12;;;;;;;14.23;8.68;;;5.00;99.90;;;;;;5105958;28;20123;-82
2021/11/13 07:07:39;;;;;;;14.38;9.02;;;5.00;99.90;;;;;;5110280;28;20030;-82
2021/11/13 07:10:09;;;;;;;14.68;9.07;;;5.00;99.90;;;;;;5107212;28;20020;-83
2021/11/13 07:12:35;;;;;;;11.02;8.15;;;5.00;99.90;;;;;;5106540;28;20344;-83
2021/11/13 07:15:03;;;;;;;13.00;8.52;;;5.00;99.90;;;;;;5106389;28;20496;-83
2021/11/13 07:17:28;;;;;;;12.43;8.15;;;5.00;99.90;;;;;;5106520;28;20062;-81
2021/11/13 07:19:54;;;;;;;14.48;9.00;;;5.00;99.90;;;;;;5089718;28;20028;-81
2021/11/13 07:22:20;;;;;;;15.05;9.07;;;4.90;99.90;;;;;;5108395;28;20035;-81
2021/11/13 07:24:46;;;;;;;12.07;8.30;;;4.80;99.90;;;;;;5110502;28;20028;-83
2021/11/13 07:27:12;;;;;;;11.65;7.88;;;4.80;99.90;;;;;;5109555;28;20107;-82
2021/11/13 07:29:57;;;;;;;12.57;8.15;;;4.80;99.90;;;;;;5109072;28;20035;-81
2021/11/13 07:32:24;;;;;;;10.65;7.38;;;4.90;99.90;;;;;;5092679;28;20020;-79
2021/11/13 07:34:50;;;;;;;10.90;7.75;;;5.00;99.90;;;;;;5095411;28;20039;-80
2021/11/13 07:37:16;;;;;;;13.40;8.10;;;5.10;99.90;;;;;;5108646;28;20028;-83
2021/11/13 07:39:43;;;;;;;9.90;7.40;;;5.10;99.90;;;;;;5090379;28;20039;-84
2021/11/13 07:42:08;;;;;;;11.48;7.03;;;5.20;99.90;;;;;;5088941;28;20038;-84
2021/11/13 07:44:34;;;;;;;8.95;6.70;;;5.30;99.90;;;;;;5105267;28;20079;-80
2021/11/13 07:47:00;;;;;;;9.48;6.63;;;5.30;99.90;;;;;;5101786;28;20024;-85
2021/11/13 07:49:26;;;;;;;7.50;6.10;;;5.40;99.90;;;;;;5105555;28;20106;-84
2021/11/13 07:51:52;;;;;;;7.75;5.68;;;5.40;99.90;;;;;;5106277;28;20438;-82
2021/11/13 07:54:18;;;;;;;9.07;5.72;;;5.50;99.90;;;;;;5106676;28;20433;-84
2021/11/13 07:56:47;;;;;;;6.95;5.05;;;5.50;99.90;;;;;;5107497;28;20099;-83
2021/11/13 07:59:13;;;;;;;8.38;5.75;;;5.50;99.90;;;;;;5089011;28;20039;-82
2021/11/13 08:01:41;;;;;;;8.90;6.50;;;5.50;99.90;;;;;;5106043;28;20012;-81
2021/11/13 08:04:06;;;;;;;7.40;5.80;;;5.60;99.90;;;;;;5087967;28;20023;-83
2021/11/13 08:06:32;;;;;;;6.00;5.15;;;5.50;99.90;;;;;;5086977;28;20024;-83
2021/11/13 08:08:58;;;;;;;5.10;4.55;;;5.50;99.90;;;;;;5105235;28;20024;-82
2021/11/13 08:11:24;;;;;;;5.57;5.00;;;5.60;99.90;;;;;;5105370;28;20377;-83
2021/11/13 08:13:50;;;;;;;5.85;4.82;;;5.60;99.90;;;;;;5097361;28;20047;-78
2021/11/13 08:16:15;;;;;;;5.22;4.28;;;5.60;99.90;;;;;;5117174;28;20020;-78
2021/11/13 08:18:41;;;;;;;5.43;4.53;;;5.60;99.90;;;;;;5099743;28;20039;-78
2021/11/13 08:21:07;;;;;;;5.97;4.40;;;5.60;99.90;;;;;;5109364;28;20492;-83
2021/11/13 08:23:33;;;;;;;5.28;3.92;;;5.60;99.90;;;;;;5106454;28;20027;-84
2021/11/13 08:25:59;;;;;;;5.60;4.07;;;5.70;99.90;;;;;;5087582;28;20058;-80
2021/11/13 08:28:25;;;;;;;4.18;3.33;;;5.80;99.90;;;;;;5103914;28;20095;-82
2021/11/13 08:30:53;;;;;;;5.68;4.43;;;6.00;99.90;;;;;;5104040;28;20059;-83
2021/11/13 08:33:19;;;;;;;4.57;3.83;;;6.20;99.90;;;;;;5104181;28;20035;-83
2021/11/13 08:35:46;;;;;;;4.78;3.80;;;6.50;99.90;;;;;;5103744;28;20028;-82
2021/11/13 08:38:14;;;;;;;3.97;3.58;;;6.70;99.90;;;;;;5089107;28;20028;-81
2021/11/13 08:40:40;;;;;;;4.68;3.45;;;6.90;99.90;;;;;;5110163;28;20464;-79
2021/11/13 08:43:06;;;;;;;4.05;3.15;;;7.20;99.90;;;;;;5111365;28;20058;-82
2021/11/13 08:45:32;;;;;;;5.20;4.38;;;7.40;99.90;;;;;;5088922;28;20082;-85
2021/11/13 08:47:58;;;;;;;6.38;5.07;;;7.40;98.00;;;;;;5091605;28;20024;-80
2021/11/13 08:50:27;;;;;;;6.75;4.45;;;7.30;97.80;;;;;;5110715;28;20400;-82
2021/11/13 08:52:55;;;;;;;5.25;4.22;;;7.20;98.40;;;;;;5111741;28;20024;-80
2021/11/13 08:55:24;;;;;;;5.07;3.85;;;7.30;99.10;;;;;;5109151;28;20024;-83
2021/11/13 08:57:51;;;;;;;4.47;3.00;;;7.50;99.10;;;;;;5106497;28;20039;-83
2021/11/13 09:00:32;;;;;;;7.80;5.68;;;7.60;99.00;;;;;;5088030;28;20055;-83
2021/11/13 09:03:01;;;;;;;7.95;5.78;;;7.70;97.50;;;;;;5086967;28;20035;-82
2021/11/13 09:05:27;;;;;;;9.88;6.25;;;7.70;97.00;;;;;;5105106;28;20017;-80
2021/11/13 09:07:54;;;;;;;10.73;7.07;;;7.70;97.20;;;;;;5087152;28;20400;-84
2021/11/13 09:10:21;;;;;;;8.00;5.85;;;7.80;97.30;;;;;;5105273;28;20045;-83
2021/11/13 09:12:47;;;;;;;11.27;7.20;;;8.00;97.40;;;;;;5092319;28;20026;-82
2021/11/13 09:15:23;;;;;;;8.32;6.55;;;8.20;95.90;;;;;;5113225;28;20028;-79
2021/11/13 09:17:50;;;;;;;7.65;5.53;;;8.40;95.90;;;;;;5113940;28;20062;-79
2021/11/13 09:20:15;;;;;;;9.15;6.85;;;8.40;96.10;;;;;;5098354;28;20040;-80
2021/11/13 09:22:41;;;;;;;9.68;6.55;;;8.50;96.00;;;;;;5111744;28;20036;-79
2021/11/13 09:25:10;;;;;;;9.48;6.50;;;8.50;95.80;;;;;;5104877;28;20024;-83
2021/11/13 09:27:43;;;;;;;7.57;5.50;;;8.50;95.90;;;;;;5102332;28;20130;-83
2021/11/13 09:30:11;;;;;;;;;;;8.50;96.30;;;;;;5102979;28;20036;-81
2021/11/13 09:32:37;;;;;;;8.20;6.15;;;8.60;96.30;;;;;;5106344;28;19904;-84
2021/11/13 09:35:03;;;;;;;7.60;6.00;;;8.70;95.70;;;;;;5107390;28;20024;-80
2021/11/13 09:37:31;;;;;;;9.07;6.53;;;8.70;96.00;;;;;;5113238;28;20492;-80
2021/11/13 09:39:58;;;;;;;12.45;7.13;;;8.90;95.70;;;;;;5094707;28;20100;-82
2021/11/13 09:42:24;;;;;;;8.93;6.93;;;8.90;94.80;;;;;;5092666;28;20038;-82
2021/11/13 09:44:51;;;;;;;8.73;6.68;;;8.80;94.70;;;;;;5094719;28;20061;-80
2021/11/13 09:47:18;;;;;;;8.95;6.25;;;8.70;95.00;;;;;;5111880;28;20016;-82
2021/11/13 09:49:44;;;;;;;11.05;7.40;;;8.70;95.50;;;;;;5101961;28;20039;-82
2021/11/13 09:52:13;;;;;;;10.00;7.07;;;8.70;95.20;;;;;;5103619;28;20462;-82
2021/11/13 09:54:42;;;;;;;8.57;6.50;;;8.70;94.60;;;;;;5084695;28;20057;-83
2021/11/13 09:57:09;;;;;;;9.65;7.18;;;8.70;94.90;;;;;;5102481;28;20068;-81
2021/11/13 09:59:35;;;;;;;9.52;7.40;;;8.60;94.90;;;;;;5103986;28;20020;-83
2021/11/13 10:02:01;;;;;;;10.88;7.90;;;8.70;95.10;;;;;;5102731;28;20023;-83
2021/11/13 10:04:27;;;;;;;12.00;7.10;;;8.70;95.10;;;;;;5085940;28;20516;-83
2021/11/13 10:06:53;;;;;;;8.23;6.10;;;8.70;94.90;;;;;;5103706;28;20019;-82
2021/11/13 10:09:19;;;;;;;9.73;6.55;;;8.50;95.10;;;;;;5101984;28;20016;-83
2021/11/13 10:11:49;;;;;;;9.45;7.00;;;8.50;95.20;;;;;;5102392;28;20452;-81
2021/11/13 10:14:15;;;;;;;9.05;6.85;;;8.40;95.30;;;;;;5104909;28;20020;-80
2021/11/13 10:16:49;;;;;;;8.43;6.25;;;8.30;95.40;;;;;;5115224;28;20055;-79
2021/11/13 10:19:18;;;;;;;10.13;7.40;;;8.30;95.90;;;;;;5099124;28;20024;-80
2021/11/13 10:21:47;;;;;;;10.13;5.78;;;8.40;95.50;;;;;;5093528;28;20028;-83
2021/11/13 10:24:23;;;;;;;8.80;6.63;;;8.40;95.50;;;;;;5106786;28;20028;-81
2021/11/13 10:26:56;;;;;;;9.52;6.18;;;8.30;95.40;;;;;;5108292;28;20016;-80
2021/11/13 10:29:25;;;;;;;8.02;6.35;;;8.30;95.50;;;;;;5107903;28;20032;-84
2021/11/13 10:31:58;;;;;;;9.30;6.28;;;8.30;95.50;;;;;;5108595;28;20027;-84
2021/11/13 10:34:26;;;;;;;7.63;6.15;;;8.40;95.50;;;;;;5088433;28;20031;-83
2021/11/13 10:36:59;;;;;;;5.80;4.57;;;8.60;95.60;;;;;;5087110;28;20024;-84
2021/11/13 10:39:29;;;;;;;6.22;4.95;;;8.90;95.30;;;;;;5107158;28;20104;-84
2021/11/13 10:42:07;;;;;;;5.93;4.30;;;9.20;94.70;;;;;;5092366;28;20032;-79
2021/11/13 10:44:39;;;;;;;10.00;7.55;;;9.40;94.10;;;;;;5115217;28;20014;-77
2021/11/13 10:47:09;;;;;;;12.33;7.20;;;9.50;92.60;;;;;;5114263;28;20021;-82
2021/11/13 10:49:35;;;;;;;11.50;7.90;;;9.50;91.90;;;;;;5115734;28;20024;-82
2021/11/13 10:52:04;;;;;;;11.02;7.93;;;9.40;91.80;;;;;;5116852;28;20028;-81
2021/11/13 10:54:30;;;;;;;10.57;7.63;;;9.50;91.80;;;;;;5113674;28;20020;-82
2021/11/13 10:56:59;;;;;;;13.88;7.78;;;9.40;91.40;;;;;;5092605;28;20031;-83
2021/11/13 10:59:34;;;;;;;13.13;9.20;;;9.40;91.20;;;;;;5087513;28;20040;-84
2021/11/13 11:02:02;;;;;;;11.23;8.40;;;9.20;91.30;;;;;;5086972;28;20020;-82
2021/11/13 11:04:31;;;;;;;10.85;8.27;;;9.10;92.00;;;;;;5108976;28;20118;-80
2021/11/13 11:07:12;;;;;;;12.02;8.15;;;9.10;92.00;;;;;;5108038;28;20025;-83
2021/11/13 11:09:44;;;;;;;14.00;8.27;;;9.00;92.60;;;;;;5108855;28;20099;-81
2021/11/13 11:12:17;;;;;;;10.27;6.85;;;8.90;92.90;;;;;;5107380;28;20031;-83
2021/11/13 11:14:49;;;;;;;11.73;7.82;;;9.00;93.40;;;;;;5107319;28;20032;-83
2021/11/13 11:17:20;;;;;;;11.27;7.90;;;9.00;93.40;;;;;;5107462;28;20016;-83
2021/11/13 11:19:50;;;;;;;11.80;8.20;;;9.00;92.90;;;;;;5107448;28;20024;-83
2021/11/13 11:22:24;;;;;;;11.85;8.27;;;9.00;93.30;;;;;;5086885;28;20024;-82
2021/11/13 11:25:01;;;;;;;14.88;8.77;;;9.00;93.40;;;;;;5087645;28;20058;-84
2021/11/13 11:27:34;;;;;;;13.10;8.77;;;9.10;93.50;;;;;;5108276;28;20031;-81
2021/11/13 11:30:13;;;;;;;12.10;7.85;;;9.10;93.20;;;;;;5093354;28;20096;-83
2021/11/13 11:32:54;;;;;;;8.32;6.82;;;9.20;93.80;;;;;;5104869;28;20107;-81
2021/11/13 11:35:22;;;;;;;14.43;8.63;;;9.30;94.10;;;;;;5106159;28;20064;-82
2021/11/13 11:38:06;;;;;;;11.68;8.15;;;9.40;93.70;;;;;;5086911;28;20107;-83
2021/11/13 11:40:42;;;;;;;11.00;7.50;;;9.50;93.20;;;;;;5088978;28;20024;-81
2021/11/13 11:43:09;;;;;;;13.10;8.65;;;9.60;93.30;;;;;;5101791;28;20024;-80
2021/11/13 11:45:38;;;;;;;10.90;8.13;;;9.80;92.60;;;;;;5101433;28;20031;-80
2021/11/13 11:48:09;;;;;;;9.20;7.55;;;9.90;92.60;;;;;;5100242;28;20023;-80
2021/11/13 11:50:35;;;;;;;14.65;8.43;;;10.10;92.40;;;;;;5101295;28;20085;-78
2021/11/13 11:53:06;;;;;;;11.95;8.40;;;10.10;91.30;;;;;;5086541;28;20071;-78
2021/11/13 11:55:33;;;;;;;12.05;8.40;;;10.10;91.20;;;;;;5102696;28;20035;-79
2021/11/13 11:58:06;;;;;;;12.45;8.70;;;10.00;90.90;;;;;;5101208;28;20100;-80
2021/11/13 12:00:34;;;;;;;11.35;8.68;;;9.80;91.10;;;;;;5084433;28;20031;-80
2021/11/13 12:03:03;;;;;;;11.15;9.13;;;9.60;91.60;;;;;;5101511;28;20016;-80
2021/11/13 12:05:31;;;;;;;13.27;9.05;;;9.50;92.00;;;;;;5102512;28;20038;-80
2021/11/13 12:07:58;;;;;;;11.68;8.57;;;9.50;91.90;;;;;;5083974;28;20051;-80
2021/11/13 12:10:27;;;;;;;13.02;8.85;;;9.40;92.50;;;;;;5104171;28;20031;-80
2021/11/13 12:13:05;;;;;;;11.80;8.52;;;9.30;92.90;;;;;;5105792;28;20023;-80
2021/11/13 12:15:52;;;;;;;15.13;9.02;;;9.30;93.00;;;;;;5100521;28;20438;-80
2021/11/13 12:18:21;;;;;;;14.05;9.68;;;9.20;93.10;;;;;;5102802;28;20100;-79
2021/11/13 12:20:49;;;;;;;11.18;8.30;;;9.30;93.10;;;;;;5103298;28;20127;-80
2021/11/13 12:23:35;;;;;;;15.70;8.65;;;9.30;93.00;;;;;;5082996;28;20030;-80
2021/11/13 12:26:10;;;;;;;11.45;8.27;;;9.30;93.30;;;;;;5100039;28;20024;-81
2021/11/13 12:28:57;;;;;;;11.25;8.60;;;9.40;93.50;;;;;;5082612;28;20089;-79
2021/11/13 12:31:39;;;;;;;12.68;8.45;;;9.50;93.40;;;;;;5099685;28;20036;-80
2021/11/13 12:34:08;;;;;;;11.00;8.00;;;9.50;93.20;;;;;;5098908;28;20073;-79
2021/11/13 12:36:54;;;;;;;12.30;8.30;;;9.50;93.40;;;;;;5101213;28;20027;-79
2021/11/13 12:39:21;;;;;;;13.18;9.25;;;9.50;93.40;;;;;;5082028;28;20403;-78
2021/11/13 12:41:49;;;;;;;15.50;8.82;;;9.40;93.70;;;;;;5081606;28;20031;-79
2021/11/13 12:44:35;;;;;;;14.95;9.60;;;9.30;93.60;;;;;;5100764;28;20035;-81
2021/11/13 12:47:07;;;;;;;13.05;9.18;;;9.20;93.90;;;;;;5099268;28;20036;-79
2021/11/13 12:49:34;;;;;;;13.23;8.73;;;9.10;94.30;;;;;;5083280;28;20042;-79